Time;durP1;ratioP1;P1;durP2;ratioP2;P2;SDS_P1;SDS_P2;PMS_P1;PMS_P2;Temp;Humidity;BMP_temperature;BMP_pressure;BME280_temperature;BME280_humidity;BME280_pressure;Samples;Min_cycle;Max_cycle;Signal;HPM_P1;HPM_P2
2023/01/14 00:00:08;;;;;;;1.45;1.35;;;;;;;;;;4997890;28;20053;-92
2023/01/14 00:02:35;;;;;;;4.85;4.65;;;;;;;;;;4996895;28;20399;-92
2023/01/14 00:05:03;;;;;;;2.38;2.28;;;;;;;;;;4997475;28;20046;-93
2023/01/14 00:07:29;;;;;;;2.08;1.98;;;;;;;;;;4997892;28;20075;-93
2023/01/14 00:09:56;;;;;;;1.70;1.63;;;;;;;;;;4997338;28;20517;-93
2023/01/14 00:12:22;;;;;;;0.80;0.80;;;;;;;;;;4997445;28;20054;-92
2023/01/14 00:14:49;;;;;;;0.93;0.93;;;;;;;;;;4997651;28;20050;-93
2023/01/14 00:17:15;;;;;;;2.22;2.13;;;;;;;;;;4997271;28;20545;-93
2023/01/14 00:19:42;;;;;;;1.10;1.10;;;;;;;;;;4997387;28;20245;-92
2023/01/14 00:22:10;;;;;;;1.48;1.38;;;;;;;;;;4997085;28;20062;-92
2023/01/14 00:24:36;;;;;;;2.17;1.98;;;;;;;;;;4997408;28;20046;-92
2023/01/14 00:27:03;;;;;;;1.70;1.63;;;;;;;;;;4997017;28;20105;-92
2023/01/14 00:29:31;;;;;;;1.25;1.23;;;;;;;;;;4997207;28;20054;-92
2023/01/14 00:31:59;;;;;;;2.85;1.58;;;;;;;;;;4996370;28;20042;-92
2023/01/14 00:34:26;;;;;;;1.38;1.30;;;;;;;;;;4997204;28;20444;-92
2023/01/14 00:36:52;;;;;;;1.48;1.38;;;;;;;;;;4996824;28;20096;-92
2023/01/14 00:39:21;;;;;;;1.23;1.23;;;;;;;;;;4996666;28;20053;-92
2023/01/14 00:41:47;;;;;;;1.33;1.30;;;;;;;;;;4996950;28;20142;-90
2023/01/14 00:44:14;;;;;;;4.30;1.13;;;;;;;;;;4996841;28;20453;-90
2023/01/14 00:46:41;;;;;;;1.02;1.02;;;;;;;;;;4996783;28;20490;-91
2023/01/14 00:49:09;;;;;;;1.08;1.08;;;;;;;;;;4997026;28;20124;-90
2023/01/14 00:51:36;;;;;;;3.72;2.20;;;;;;;;;;4996662;28;20572;-91
2023/01/14 00:54:03;;;;;;;1.65;1.55;;;;;;;;;;4996916;28;20137;-90
2023/01/14 00:56:31;;;;;;;0.80;0.80;;;;;;;;;;4996522;28;20442;-90
2023/01/14 00:58:57;;;;;;;1.25;1.25;;;;;;;;;;4996298;28;20615;-90
2023/01/14 01:01:24;;;;;;;1.35;1.35;;;;;;;;;;4995816;28;20130;-90
2023/01/14 01:03:51;;;;;;;1.08;1.08;;;;;;;;;;4996662;28;20049;-90
2023/01/14 01:06:19;;;;;;;2.13;2.03;;;;;;;;;;4996615;28;20054;-90
2023/01/14 01:08:45;;;;;;;2.03;1.92;;;;;;;;;;4996538;28;20042;-89
2023/01/14 01:11:12;;;;;;;3.30;3.00;;;;;;;;;;4996287;28;20557;-88
2023/01/14 01:13:40;;;;;;;1.55;1.45;;;;;;;;;;4996138;28;20133;-88
2023/01/14 01:16:08;;;;;;;2.25;2.15;;;;;;;;;;4996114;28;20419;-90
2023/01/14 01:18:35;;;;;;;1.17;1.17;;;;;;;;;;4996157;28;20054;-91
2023/01/14 01:21:02;;;;;;;2.72;1.90;;;;;;;;;;4996342;28;20561;-90
2023/01/14 01:23:29;;;;;;;2.42;1.20;;;;;;;;;;4996298;28;20100;-91
2023/01/14 01:25:59;;;;;;;0.68;0.68;;;;;;;;;;4996581;28;20046;-90
2023/01/14 01:28:25;;;;;;;1.02;1.02;;;;;;;;;;4996244;28;20450;-90
2023/01/14 01:30:53;;;;;;;1.58;1.45;;;;;;;;;;4995679;28;20046;-90
2023/01/14 01:33:19;;;;;;;1.08;1.08;;;;;;;;;;4996100;28;20073;-88
2023/01/14 01:35:46;;;;;;;2.97;2.05;;;;;;;;;;4996238;28;20125;-90
2023/01/14 01:38:13;;;;;;;1.10;0.98;;;;;;;;;;4996242;28;20218;-90
2023/01/14 01:40:39;;;;;;;0.38;0.38;;;;;;;;;;4995886;28;20494;-88
2023/01/14 01:43:09;;;;;;;2.10;1.30;;;;;;;;;;4995784;28;20109;-88
2023/01/14 01:45:42;;;;;;;0.68;0.68;;;;;;;;;;4995674;28;20054;-89
2023/01/14 01:48:11;;;;;;;1.55;1.40;;;;;;;;;;4995789;28;20101;-88
2023/01/14 01:50:38;;;;;;;1.73;1.63;;;;;;;;;;4995417;28;20050;-89
2023/01/14 01:53:05;;;;;;;0.50;0.50;;;;;;;;;;4995654;28;20117;-89
2023/01/14 01:55:34;;;;;;;0.55;0.55;;;;;;;;;;4995465;28;20042;-88
2023/01/14 01:58:01;;;;;;;0.88;0.88;;;;;;;;;;4995154;28;20054;-89
2023/01/14 02:00:27;;;;;;;1.02;1.02;;;;;;;;;;4995384;28;20132;-88
2023/01/14 02:02:56;;;;;;;2.15;1.05;;;;;;;;;;4995366;28;20054;-89
2023/01/14 02:05:25;;;;;;;0.70;0.70;;;;;;;;;;4995206;28;20557;-89
2023/01/14 02:07:51;;;;;;;2.03;1.42;;;;;;;;;;4995478;28;20047;-89
2023/01/14 02:10:18;;;;;;;0.40;0.40;;;;;;;;;;4994319;28;20100;-89
2023/01/14 02:13:02;;;;;;;1.02;1.02;;;;;;;;;;4995419;28;20042;-89
2023/01/14 02:15:34;;;;;;;0.80;0.80;;;;;;;;;;4995245;28;20050;-89
2023/01/14 02:18:04;;;;;;;0.73;0.73;;;;;;;;;;4994842;28;20050;-89
2023/01/14 02:20:36;;;;;;;0.88;0.88;;;;;;;;;;4995301;28;20054;-89
2023/01/14 02:23:12;;;;;;;0.95;0.95;;;;;;;;;;4995154;28;20387;-89
2023/01/14 02:25:50;;;;;;;0.60;0.60;;;;;;;;;;4995267;28;20050;-89
2023/01/14 02:28:24;;;;;;;0.60;0.60;;;;;;;;;;4994769;28;20061;-89
2023/01/14 02:30:57;;;;;;;3.33;3.08;;;;;;;;;;4994668;28;20050;-89
2023/01/14 02:33:40;;;;;;;0.70;0.70;;;;;;;;;;4994520;28;20050;-89
2023/01/14 02:36:11;;;;;;;3.63;3.38;;;;;;;;;;4994508;28;20461;-89
2023/01/14 02:38:42;;;;;;;3.88;3.67;;;;;;;;;;4994684;28;20434;-89
2023/01/14 02:41:15;;;;;;;1.17;1.15;;;;;;;;;;4994823;28;20051;-89
2023/01/14 02:46:31;;;;;;;0.38;0.38;;;;;;;;;;4994609;28;20056;-89
2023/01/14 02:48:59;;;;;;;1.13;1.08;;;;;;;;;;4994751;28;20046;-89
2023/01/14 02:51:26;;;;;;;1.13;1.13;;;;;;;;;;4994673;28;20109;-89
2023/01/14 02:53:53;;;;;;;2.50;1.85;;;;;;;;;;4994583;28;20108;-89
2023/01/14 02:56:19;;;;;;;1.50;1.35;;;;;;;;;;4994646;28;20462;-89
2023/01/14 02:58:57;;;;;;;4.90;4.60;;;;;;;;;;4994308;28;20050;-89
2023/01/14 03:01:29;;;;;;;0.95;0.95;;;;;;;;;;4994359;28;20054;-91
2023/01/14 03:03:55;;;;;;;;;;;;;;;;;;4994831;28;20470;-92
2023/01/14 03:06:29;;;;;;;1.73;1.63;;;;;;;;;;4994498;28;19969;-92
2023/01/14 03:08:59;;;;;;;0.80;0.77;;;;;;;;;;4994054;28;20046;-91
2023/01/14 03:11:28;;;;;;;0.95;0.95;;;;;;;;;;4994038;28;20046;-91
2023/01/14 03:13:59;;;;;;;0.60;0.52;;;;;;;;;;4993974;28;20058;-91
2023/01/14 03:16:28;;;;;;;0.47;0.47;;;;;;;;;;4993938;28;20058;-92
2023/01/14 03:18:58;;;;;;;1.92;1.13;;;;;;;;;;4994137;28;20112;-91
2023/01/14 03:21:27;;;;;;;0.22;0.22;;;;;;;;;;4993787;28;20060;-91
2023/01/14 03:23:56;;;;;;;1.88;1.70;;;;;;;;;;4994073;28;20128;-89
2023/01/14 03:26:23;;;;;;;1.13;1.10;;;;;;;;;;4994204;28;20047;-88
2023/01/14 03:28:50;;;;;;;1.33;1.23;;;;;;;;;;4993486;28;20458;-89
2023/01/14 03:31:19;;;;;;;1.50;1.45;;;;;;;;;;4993884;28;20054;-88
2023/01/14 03:33:48;;;;;;;0.70;0.70;;;;;;;;;;4993971;28;20058;-89
2023/01/14 03:36:15;;;;;;;1.02;0.93;;;;;;;;;;4994120;28;20047;-88
2023/01/14 03:38:45;;;;;;;1.33;1.08;;;;;;;;;;4993890;28;20050;-88
2023/01/14 03:42:17;;;;;;;0.85;0.73;;;;;;;;;;4993923;28;20050;-88
2023/01/14 03:44:02;;;;;;;0.60;0.60;;;;;;;;;;4993535;28;20047;-88
2023/01/14 03:46:29;;;;;;;0.43;0.43;;;;;;;;;;4993970;28;20046;-88
2023/01/14 03:48:56;;;;;;;1.02;1.02;;;;;;;;;;4993696;28;20058;-88
2023/01/14 03:51:25;;;;;;;1.65;1.45;;;;;;;;;;4993649;28;20051;-89
2023/01/14 03:53:57;;;;;;;0.30;0.30;;;;;;;;;;4993709;28;20046;-88
2023/01/14 03:56:26;;;;;;;1.48;0.63;;;;;;;;;;4993956;28;20050;-89
2023/01/14 03:58:54;;;;;;;1.35;1.27;;;;;;;;;;4994076;28;20050;-89
2023/01/14 04:01:23;;;;;;;1.88;1.02;;;;;;;;;;4993779;28;20054;-89
2023/01/14 04:03:49;;;;;;;0.95;0.85;;;;;;;;;;4993440;28;20391;-89
2023/01/14 04:06:16;;;;;;;0.52;0.52;;;;;;;;;;4993470;28;20108;-88
2023/01/14 04:08:43;;;;;;;0.22;0.22;;;;;;;;;;4993546;28;20050;-88
2023/01/14 04:11:11;;;;;;;1.73;1.63;;;;;;;;;;4993521;28;20058;-88
2023/01/14 04:16:21;;;;;;;1.48;1.38;;;;;;;;;;4993109;28;20097;-88
2023/01/14 04:18:48;;;;;;;1.45;1.35;;;;;;;;;;4992912;28;20100;-89
2023/01/14 04:21:14;;;;;;;1.08;0.98;;;;;;;;;;4993290;28;20047;-89
2023/01/14 04:23:41;;;;;;;0.77;0.77;;;;;;;;;;4993606;28;20050;-90
2023/01/14 04:26:07;;;;;;;1.92;1.77;;;;;;;;;;4993255;28;20050;-90
2023/01/14 04:28:35;;;;;;;1.38;0.90;;;;;;;;;;4993611;28;20054;-90
2023/01/14 04:31:02;;;;;;;0.90;0.90;;;;;;;;;;4993271;28;20101;-90
2023/01/14 04:33:28;;;;;;;1.58;1.48;;;;;;;;;;4994266;28;20045;-90
2023/01/14 04:35:55;;;;;;;3.22;1.67;;;;;;;;;;4996821;28;20062;-90
2023/01/14 04:38:22;;;;;;;0.40;0.40;;;;;;;;;;4997065;28;20101;-90
2023/01/14 04:40:49;;;;;;;1.00;0.93;;;;;;;;;;4997048;28;20054;-90
2023/01/14 04:43:14;;;;;;;0.73;0.70;;;;;;;;;;4997036;28;20101;-90
2023/01/14 04:45:42;;;;;;;1.85;1.75;;;;;;;;;;4996585;28;20046;-90
2023/01/14 04:48:09;;;;;;;4.72;2.97;;;;;;;;;;4996901;28;20042;-90
2023/01/14 04:50:37;;;;;;;0.93;0.93;;;;;;;;;;4996904;28;20046;-90
2023/01/14 04:53:04;;;;;;;2.92;2.08;;;;;;;;;;4996462;28;20058;-89
2023/01/14 04:55:31;;;;;;;3.10;2.97;;;;;;;;;;4996304;28;20671;-89
2023/01/14 04:57:57;;;;;;;1.02;0.93;;;;;;;;;;4996433;28;20046;-90
2023/01/14 05:00:24;;;;;;;0.43;0.43;;;;;;;;;;4996556;28;20047;-89
2023/01/14 05:02:52;;;;;;;2.50;1.52;;;;;;;;;;4996144;28;20050;-89
2023/01/14 05:05:19;;;;;;;2.92;2.70;;;;;;;;;;4996182;28;20491;-89
2023/01/14 05:07:45;;;;;;;1.42;1.40;;;;;;;;;;4996495;28;20050;-89
2023/01/14 05:10:12;;;;;;;1.08;1.08;;;;;;;;;;4996001;28;20043;-89
2023/01/14 05:12:38;;;;;;;1.00;1.00;;;;;;;;;;4996340;28;20050;-89
2023/01/14 05:15:22;;;;;;;2.05;1.95;;;;;;;;;;4995921;28;20055;-89
2023/01/14 05:17:48;;;;;;;5.90;3.78;;;;;;;;;;4996191;28;20117;-89
2023/01/14 05:20:16;;;;;;;4.22;4.03;;;;;;;;;;4995966;28;20379;-89
2023/01/14 05:22:43;;;;;;;2.40;2.25;;;;;;;;;;4995833;28;20054;-89
2023/01/14 05:25:10;;;;;;;2.08;1.95;;;;;;;;;;4996024;28;20627;-89
2023/01/14 05:27:36;;;;;;;2.17;2.08;;;;;;;;;;4996024;28;20458;-89
2023/01/14 05:30:03;;;;;;;3.35;3.15;;;;;;;;;;4995929;28;20101;-89
2023/01/14 05:32:29;;;;;;;1.77;1.38;;;;;;;;;;4995428;28;20798;-89
2023/01/14 05:34:56;;;;;;;7.10;4.22;;;;;;;;;;4995483;28;20471;-89
2023/01/14 05:37:24;;;;;;;1.45;1.35;;;;;;;;;;4995418;28;20106;-88
2023/01/14 05:39:50;;;;;;;1.80;1.50;;;;;;;;;;4995214;28;20120;-88
2023/01/14 05:47:44;;;;;;;;;;;;;;;;;;4995682;28;20133;-88
2023/01/14 05:50:11;;;;;;;2.10;2.00;;;;;;;;;;4995442;28;20341;-88
2023/01/14 05:52:39;;;;;;;0.88;0.88;;;;;;;;;;4995878;28;20100;-89
2023/01/14 05:55:06;;;;;;;0.80;0.80;;;;;;;;;;4995658;28;20050;-90
2023/01/14 05:57:33;;;;;;;6.43;3.70;;;;;;;;;;4995438;28;20046;-89
2023/01/14 05:59:59;;;;;;;2.50;2.33;;;;;;;;;;4995613;28;20105;-90
2023/01/14 06:07:53;;;;;;;2.22;2.13;;;;;;;;;;4923446;28;20050;-89
2023/01/14 06:10:24;;;;;;;2.05;1.95;;;;;;;;;;4976044;28;20051;-89
2023/01/14 06:13:04;;;;;;;2.35;2.25;;;;;;;;;;4976301;28;20050;-89
2023/01/14 06:15:35;;;;;;;2.92;2.67;;;;;;;;;;4977267;28;20054;-89
2023/01/14 06:18:13;;;;;;;1.77;1.67;;;;;;;;;;4981151;28;20061;-88
2023/01/14 06:20:39;;;;;;;;;;;;;;;;;;4978436;28;20047;-89
2023/01/14 06:23:07;;;;;;;1.08;1.08;;;;;;;;;;4979466;28;19929;-88
2023/01/14 06:25:34;;;;;;;2.55;2.08;;;;;;;;;;4979657;28;20450;-89
2023/01/14 06:28:00;;;;;;;8.40;3.63;;;;;;;;;;4980944;28;20058;-90
2023/01/14 06:30:27;;;;;;;2.58;2.38;;;;;;;;;;4984497;28;20054;-90
2023/01/14 06:32:54;;;;;;;2.00;1.90;;;;;;;;;;4981414;28;20043;-90
2023/01/14 06:35:21;;;;;;;2.22;2.13;;;;;;;;;;4981688;28;20050;-91
2023/01/14 06:37:47;;;;;;;1.50;1.50;;;;;;;;;;4984333;28;20106;-89
2023/01/14 06:40:15;;;;;;;7.97;2.38;;;;;;;;;;4978574;28;20054;-92
2023/01/14 06:42:42;;;;;;;4.40;1.67;;;;;;;;;;4984166;28;20070;-90
2023/01/14 06:45:10;;;;;;;2.08;1.88;;;;;;;;;;4986404;28;20050;-90
2023/01/14 06:47:36;;;;;;;4.90;2.83;;;;;;;;;;4985244;28;20058;-90
2023/01/14 06:50:03;;;;;;;4.47;2.42;;;;;;;;;;4974927;28;20109;-87
2023/01/14 06:52:29;;;;;;;1.50;0.75;;;;;;;;;;4975487;28;20059;-91
2023/01/14 06:54:58;;;;;;;1.73;1.63;;;;;;;;;;4982845;28;20046;-89
2023/01/14 06:57:26;;;;;;;1.70;1.52;;;;;;;;;;4994951;28;20517;-90
2023/01/14 06:59:53;;;;;;;0.80;0.77;;;;;;;;;;5002249;28;20042;-92
2023/01/14 07:02:19;;;;;;;1.05;1.05;;;;;;;;;;4996351;28;20050;-90
2023/01/14 07:04:46;;;;;;;0.93;0.90;;;;;;;;;;4994097;28;20057;-91
2023/01/14 07:07:12;;;;;;;1.45;1.35;;;;;;;;;;4975183;28;20459;-91
2023/01/14 07:09:39;;;;;;;2.08;1.98;;;;;;;;;;4974769;28;20050;-89
2023/01/14 07:12:06;;;;;;;1.13;1.13;;;;;;;;;;4974667;28;20054;-91
2023/01/14 07:14:34;;;;;;;1.50;1.38;;;;;;;;;;4974930;28;20467;-91
2023/01/14 07:17:01;;;;;;;2.22;2.13;;;;;;;;;;4974634;28;20054;-93
2023/01/14 07:19:27;;;;;;;1.95;1.85;;;;;;;;;;4974746;28;20085;-90
2023/01/14 07:21:54;;;;;;;5.78;3.15;;;;;;;;;;4981541;28;20050;-90
2023/01/14 07:24:20;;;;;;;2.45;2.22;;;;;;;;;;4993986;28;20050;-89
2023/01/14 07:26:47;;;;;;;2.47;2.38;;;;;;;;;;4993616;28;20054;-90
2023/01/14 07:29:14;;;;;;;1.83;1.73;;;;;;;;;;4993699;28;20105;-89
2023/01/14 07:31:42;;;;;;;1.05;1.05;;;;;;;;;;4993840;28;20057;-91
2023/01/14 07:34:09;;;;;;;1.73;1.63;;;;;;;;;;4993968;28;20053;-90
2023/01/14 07:36:35;;;;;;;4.43;3.42;;;;;;;;;;4993787;28;20047;-89
2023/01/14 07:39:02;;;;;;;2.05;1.88;;;;;;;;;;4994222;28;20101;-89
2023/01/14 07:41:28;;;;;;;1.70;1.60;;;;;;;;;;4993954;28;20426;-90
2023/01/14 07:43:55;;;;;;;1.75;1.65;;;;;;;;;;4993709;28;20093;-90
2023/01/14 07:46:21;;;;;;;2.28;2.17;;;;;;;;;;4995078;28;20058;-89
2023/01/14 07:48:49;;;;;;;2.28;2.08;;;;;;;;;;4993887;28;20050;-90
2023/01/14 07:51:20;;;;;;;3.83;3.55;;;;;;;;;;4988965;28;20047;-90
2023/01/14 07:53:47;;;;;;;4.78;2.10;;;;;;;;;;4974592;28;20566;-91
2023/01/14 07:56:13;;;;;;;2.67;2.47;;;;;;;;;;4974452;28;20114;-90
2023/01/14 07:58:40;;;;;;;0.88;0.88;;;;;;;;;;4974288;28;20046;-90
2023/01/14 08:01:07;;;;;;;0.90;0.90;;;;;;;;;;4974289;28;20167;-90
2023/01/14 08:03:34;;;;;;;3.03;2.40;;;;;;;;;;4975525;28;20047;-90
2023/01/14 08:06:02;;;;;;;1.17;1.15;;;;;;;;;;4974391;28;20129;-90
2023/01/14 08:08:29;;;;;;;1.50;1.42;;;;;;;;;;4973751;28;20065;-91
2023/01/14 08:10:59;;;;;;;5.05;4.68;;;;;;;;;;4978112;28;20189;-90
2023/01/14 08:13:27;;;;;;;3.17;2.97;;;;;;;;;;4977976;28;20055;-90
2023/01/14 08:15:57;;;;;;;8.40;7.70;;;;;;;;;;4977657;28;20137;-90
2023/01/14 08:18:23;;;;;;;1.05;1.00;;;;;;;;;;4977501;28;20055;-90
2023/01/14 08:20:56;;;;;;;2.55;2.35;;;;;;;;;;4977573;28;20058;-90
2023/01/14 08:23:24;;;;;;;3.95;3.65;;;;;;;;;;4977085;28;20137;-90
2023/01/14 08:25:50;;;;;;;1.40;1.30;;;;;;;;;;4977639;28;20050;-91
2023/01/14 08:28:17;;;;;;;2.65;2.35;;;;;;;;;;4977903;28;20058;-90
2023/01/14 08:30:43;;;;;;;1.35;1.25;;;;;;;;;;4977773;28;20054;-90
2023/01/14 08:33:10;;;;;;;2.45;1.98;;;;;;;;;;4977480;28;20051;-90
2023/01/14 08:35:38;;;;;;;2.25;2.15;;;;;;;;;;4977653;28;20195;-90
2023/01/14 08:38:04;;;;;;;1.13;1.08;;;;;;;;;;4976067;28;20058;-91
2023/01/14 08:40:33;;;;;;;1.63;1.52;;;;;;;;;;4977344;28;20043;-91
2023/01/14 08:42:59;;;;;;;2.50;2.40;;;;;;;;;;4977240;28;20051;-90
2023/01/14 08:45:26;;;;;;;2.63;2.35;;;;;;;;;;4977319;28;20109;-91
2023/01/14 08:47:52;;;;;;;3.78;1.80;;;;;;;;;;4976962;28;20554;-91
2023/01/14 08:50:20;;;;;;;2.47;2.28;;;;;;;;;;4977202;28;20109;-91
2023/01/14 08:52:46;;;;;;;2.60;2.40;;;;;;;;;;4957748;29;20102;-91
2023/01/14 08:55:13;;;;;;;2.13;2.03;;;;;;;;;;4957649;29;20047;-90
2023/01/14 08:57:40;;;;;;;3.70;3.50;;;;;;;;;;4957373;29;20150;-90
2023/01/14 09:00:08;;;;;;;3.45;2.20;;;;;;;;;;4957259;29;20115;-90
2023/01/14 09:02:34;;;;;;;4.18;3.88;;;;;;;;;;4957188;29;20094;-90
2023/01/14 09:05:01;;;;;;;2.42;2.33;;;;;;;;;;4957548;29;20048;-90
2023/01/14 09:18:21;;;;;;;3.28;3.13;;;;;;;;;;4905572;29;20550;-90
2023/01/14 09:20:48;;;;;;;1.42;1.42;;;;;;;;;;4937957;29;20247;-89
2023/01/14 09:23:15;;;;;;;2.80;2.65;;;;;;;;;;4949110;29;20106;-89
2023/01/14 09:25:41;;;;;;;3.97;3.72;;;;;;;;;;4957116;28;20051;-89
2023/01/14 09:28:09;;;;;;;3.17;3.08;;;;;;;;;;4956941;28;20448;-90
2023/01/14 09:30:36;;;;;;;2.78;2.60;;;;;;;;;;4957144;28;20055;-89
2023/01/14 09:33:06;;;;;;;2.33;1.65;;;;;;;;;;4956730;28;20493;-89
2023/01/14 09:35:32;;;;;;;2.92;2.72;;;;;;;;;;4957062;28;20053;-89
2023/01/14 09:37:59;;;;;;;2.95;2.80;;;;;;;;;;4956957;28;20063;-90
2023/01/14 09:40:25;;;;;;;3.22;3.03;;;;;;;;;;4956771;28;20110;-89
2023/01/14 09:42:52;;;;;;;5.25;4.13;;;;;;;;;;4956948;28;20106;-88
2023/01/14 09:45:24;;;;;;;2.03;1.88;;;;;;;;;;4956831;28;20114;-88
2023/01/14 09:47:51;;;;;;;4.85;2.33;;;;;;;;;;4956355;28;20110;-89
2023/01/14 09:50:20;;;;;;;2.03;1.90;;;;;;;;;;4956358;28;20114;-89
2023/01/14 09:52:53;;;;;;;3.20;2.72;;;;;;;;;;4956140;28;20412;-89
2023/01/14 09:55:24;;;;;;;5.03;3.20;;;;;;;;;;4956298;28;20059;-89
2023/01/14 09:57:53;;;;;;;3.08;2.88;;;;;;;;;;4956376;28;20118;-89
2023/01/14 10:00:40;;;;;;;5.45;5.10;;;;;;;;;;4956377;28;20106;-91
2023/01/14 10:03:21;;;;;;;4.13;3.92;;;;;;;;;;4943226;28;20050;-90
2023/01/14 10:05:53;;;;;;;4.03;3.72;;;;;;;;;;4936093;29;20123;-90
2023/01/14 10:08:20;;;;;;;6.20;4.05;;;;;;;;;;4936850;29;20059;-90
2023/01/14 10:10:47;;;;;;;8.32;7.13;;;;;;;;;;4937206;29;20394;-90
2023/01/14 10:13:16;;;;;;;4.88;4.47;;;;;;;;;;4933493;29;20111;-90
2023/01/14 10:15:46;;;;;;;4.25;3.35;;;;;;;;;;4936749;29;20114;-91
2023/01/14 10:18:14;;;;;;;4.95;4.63;;;;;;;;;;4968419;28;20054;-91
2023/01/14 10:20:48;;;;;;;8.75;4.60;;;;;;;;;;4975197;28;20050;-91
2023/01/14 10:23:17;;;;;;;5.97;5.45;;;;;;;;;;4975431;28;20051;-91
2023/01/14 10:25:46;;;;;;;4.78;3.83;;;;;;;;;;4975424;28;20054;-91
2023/01/14 10:28:14;;;;;;;7.85;7.10;;;;;;;;;;4975119;28;20106;-91
2023/01/14 10:30:42;;;;;;;6.65;4.88;;;;;;;;;;4975147;28;20470;-90
2023/01/14 10:33:13;;;;;;;6.35;5.78;;;;;;;;;;4974941;28;20249;-91
2023/01/14 10:35:41;;;;;;;5.72;5.35;;;;;;;;;;4974946;28;20495;-90
2023/01/14 10:38:07;;;;;;;6.72;3.67;;;;;;;;;;4975040;28;20051;-92
2023/01/14 10:40:35;;;;;;;12.25;10.98;;;;;;;;;;4974883;28;20468;-91
2023/01/14 10:43:03;;;;;;;8.38;7.63;;;;;;;;;;4975407;28;20458;-91
2023/01/14 10:45:30;;;;;;;5.10;4.70;;;;;;;;;;4974937;28;20046;-91
2023/01/14 10:48:02;;;;;;;5.78;5.07;;;;;;;;;;4975009;28;20495;-90
2023/01/14 10:50:28;;;;;;;5.57;5.15;;;;;;;;;;4974994;28;20077;-91
2023/01/14 10:52:55;;;;;;;5.20;4.70;;;;;;;;;;4974552;28;20114;-89
2023/01/14 10:55:23;;;;;;;2.20;2.10;;;;;;;;;;4977627;28;20047;-90
2023/01/14 10:57:54;;;;;;;7.22;6.65;;;;;;;;;;4975189;28;20478;-90
2023/01/14 11:00:31;;;;;;;4.15;3.95;;;;;;;;;;4974649;28;20486;-90
2023/01/14 11:02:58;;;;;;;5.85;4.28;;;;;;;;;;4964844;28;20106;-90
2023/01/14 11:05:26;;;;;;;3.75;3.40;;;;;;;;;;4993698;28;20054;-91
2023/01/14 11:07:54;;;;;;;6.18;5.35;;;;;;;;;;4993812;28;20046;-90
2023/01/14 11:10:22;;;;;;;4.47;3.95;;;;;;;;;;4994235;28;20391;-90
2023/01/14 11:12:51;;;;;;;6.55;5.47;;;;;;;;;;4994198;28;20050;-91
2023/01/14 11:15:34;;;;;;;10.70;5.80;;;;;;;;;;4990875;28;20113;-92
2023/01/14 11:18:15;;;;;;;2.58;2.38;;;;;;;;;;4974116;28;20199;-91
2023/01/14 11:20:42;;;;;;;5.60;5.03;;;;;;;;;;4973780;28;20102;-91
2023/01/14 11:23:14;;;;;;;5.50;4.13;;;;;;;;;;4974090;28;20059;-90
2023/01/14 11:25:41;;;;;;;3.10;2.85;;;;;;;;;;4977877;28;20129;-89
2023/01/14 11:28:15;;;;;;;4.47;4.18;;;;;;;;;;4977466;28;20106;-90
2023/01/14 11:30:43;;;;;;;4.55;4.20;;;;;;;;;;4975227;28;20101;-91
2023/01/14 11:33:18;;;;;;;6.47;4.90;;;;;;;;;;4974135;28;20055;-91
2023/01/14 11:35:49;;;;;;;6.53;5.78;;;;;;;;;;4974253;28;20050;-90
2023/01/14 11:38:19;;;;;;;4.43;4.03;;;;;;;;;;4974348;28;20051;-90
2023/01/14 11:43:35;;;;;;;9.75;9.05;;;;;;;;;;4976926;28;20586;-91
2023/01/14 11:46:05;;;;;;;3.03;2.83;;;;;;;;;;4978384;28;20101;-90
2023/01/14 11:48:32;;;;;;;6.13;5.55;;;;;;;;;;4978281;28;20054;-91
2023/01/14 11:50:59;;;;;;;8.48;3.90;;;;;;;;;;4978491;28;20051;-90
2023/01/14 11:53:27;;;;;;;8.45;7.65;;;;;;;;;;4978509;28;20422;-91
2023/01/14 11:55:55;;;;;;;8.95;6.63;;;;;;;;;;4978292;28;20129;-90
2023/01/14 11:58:24;;;;;;;6.68;6.18;;;;;;;;;;4977806;28;20097;-90
2023/01/14 12:00:53;;;;;;;5.18;4.78;;;;;;;;;;4978217;28;20050;-90
2023/01/14 12:03:28;;;;;;;5.57;4.38;;;;;;;;;;4977882;28;20157;-91
2023/01/14 12:05:55;;;;;;;4.13;3.83;;;;;;;;;;4958695;29;20134;-90
2023/01/14 12:08:22;;;;;;;4.88;4.10;;;;;;;;;;4958668;29;20055;-91
2023/01/14 12:10:50;;;;;;;4.38;3.78;;;;;;;;;;4958684;29;20059;-90
2023/01/14 12:18:53;;;;;;;5.45;4.25;;;;;;;;;;4933447;29;20103;-91
2023/01/14 12:21:21;;;;;;;5.25;4.88;;;;;;;;;;4939015;29;20107;-91
2023/01/14 12:23:51;;;;;;;6.93;6.22;;;;;;;;;;4939348;29;20099;-90
2023/01/14 12:26:20;;;;;;;4.07;3.55;;;;;;;;;;4939552;29;20056;-91
2023/01/14 12:28:50;;;;;;;4.63;4.32;;;;;;;;;;4938788;29;20103;-90
2023/01/14 12:31:22;;;;;;;6.10;4.10;;;;;;;;;;4939154;29;20059;-91
2023/01/14 12:33:51;;;;;;;4.75;4.22;;;;;;;;;;4939057;29;20099;-90
2023/01/14 12:36:19;;;;;;;6.28;5.65;;;;;;;;;;4938711;29;20511;-90
2023/01/14 12:47:06;;;;;;;3.83;3.22;;;;;;;;;;4938681;29;20062;-90
2023/01/14 12:49:33;;;;;;;7.78;3.85;;;;;;;;;;4938699;29;20059;-90
2023/01/14 12:52:01;;;;;;;4.80;4.47;;;;;;;;;;4938452;29;20055;-91
2023/01/14 12:54:30;;;;;;;4.95;2.65;;;;;;;;;;4938094;29;20062;-90
2023/01/14 12:56:57;;;;;;;3.33;3.05;;;;;;;;;;4938359;29;20143;-91
2023/01/14 12:59:27;;;;;;;4.38;4.10;;;;;;;;;;4938233;29;20514;-90
2023/01/14 13:01:56;;;;;;;5.38;4.97;;;;;;;;;;4938452;29;20047;-91
2023/01/14 13:04:25;;;;;;;4.50;4.10;;;;;;;;;;4938464;29;20051;-90
2023/01/14 13:06:54;;;;;;;4.82;3.97;;;;;;;;;;4938160;29;20556;-91
2023/01/14 13:09:22;;;;;;;5.10;4.70;;;;;;;;;;4938424;29;20055;-91
2023/01/14 13:11:51;;;;;;;4.63;4.10;;;;;;;;;;4938506;29;20050;-91
2023/01/14 13:14:21;;;;;;;3.15;2.95;;;;;;;;;;4938699;29;20060;-90
2023/01/14 13:16:47;;;;;;;10.23;9.45;;;;;;;;;;4947110;28;20394;-91
2023/01/14 13:19:31;;;;;;;4.28;3.83;;;;;;;;;;4976417;28;20051;-91
2023/01/14 13:22:00;;;;;;;8.15;7.75;;;;;;;;;;4963300;28;20447;-91
2023/01/14 13:24:28;;;;;;;5.35;4.10;;;;;;;;;;4984076;28;20054;-90
2023/01/14 13:26:56;;;;;;;4.80;4.32;;;;;;;;;;4995517;28;20060;-90
2023/01/14 13:29:24;;;;;;;3.60;3.40;;;;;;;;;;4995755;28;20050;-91
2023/01/14 13:31:52;;;;;;;3.72;2.72;;;;;;;;;;4995901;28;20457;-90
2023/01/14 13:34:35;;;;;;;9.93;6.50;;;;;;;;;;4995690;28;20084;-91
2023/01/14 13:37:25;;;;;;;4.70;4.43;;;;;;;;;;4982950;28;20047;-89
2023/01/14 13:39:56;;;;;;;4.70;4.30;;;;;;;;;;4961312;28;20059;-88
2023/01/14 13:42:28;;;;;;;5.50;3.88;;;;;;;;;;4976144;28;20047;-88
2023/01/14 13:44:56;;;;;;;6.03;5.57;;;;;;;;;;4975785;28;20058;-90
2023/01/14 13:47:27;;;;;;;3.20;2.88;;;;;;;;;;4976166;28;20047;-91
2023/01/14 13:49:57;;;;;;;3.05;2.88;;;;;;;;;;4986090;28;20050;-90
2023/01/14 13:52:25;;;;;;;6.55;3.83;;;;;;;;;;4995834;28;20046;-93
2023/01/14 13:54:54;;;;;;;4.03;3.80;;;;;;;;;;4995518;28;20121;-91
2023/01/14 13:57:26;;;;;;;7.85;3.22;;;;;;;;;;4995625;28;20552;-91
2023/01/14 13:59:55;;;;;;;8.00;7.65;;;;;;;;;;4982076;28;20101;-89
2023/01/14 14:02:40;;;;;;;5.55;5.22;;;;;;;;;;4977295;28;20050;-89
2023/01/14 14:05:15;;;;;;;2.90;2.70;;;;;;;;;;4989017;28;20042;-90
2023/01/14 14:08:00;;;;;;;3.58;3.30;;;;;;;;;;4995846;28;20050;-89
2023/01/14 14:10:29;;;;;;;4.85;3.90;;;;;;;;;;4995086;28;20054;-90
2023/01/14 14:15:45;;;;;;;4.45;4.13;;;;;;;;;;4975500;28;20058;-90
2023/01/14 14:18:20;;;;;;;4.45;4.05;;;;;;;;;;4975234;28;20068;-90
2023/01/14 14:20:47;;;;;;;5.50;4.97;;;;;;;;;;4975482;28;20050;-89
2023/01/14 14:23:19;;;;;;;5.38;4.97;;;;;;;;;;4975493;28;20043;-91
2023/01/14 14:25:45;;;;;;;7.18;6.78;;;;;;;;;;4976273;28;20462;-90
2023/01/14 14:28:17;;;;;;;5.80;5.40;;;;;;;;;;4980005;28;20058;-89
2023/01/14 14:30:45;;;;;;;3.33;3.13;;;;;;;;;;4975462;28;20057;-89
2023/01/14 14:33:26;;;;;;;5.07;4.57;;;;;;;;;;4975130;28;20043;-91
2023/01/14 14:35:53;;;;;;;4.20;3.92;;;;;;;;;;4974907;28;20055;-89
2023/01/14 14:38:20;;;;;;;6.97;4.43;;;;;;;;;;4975095;28;20050;-89
2023/01/14 14:40:48;;;;;;;6.50;6.20;;;;;;;;;;4974930;28;20400;-89
2023/01/14 14:43:23;;;;;;;3.83;3.63;;;;;;;;;;4975060;28;20053;-89
2023/01/14 14:45:59;;;;;;;5.43;4.80;;;;;;;;;;4974942;28;20054;-89
2023/01/14 14:48:27;;;;;;;4.00;3.10;;;;;;;;;;4976490;28;20043;-89
2023/01/14 14:50:54;;;;;;;5.80;4.82;;;;;;;;;;4975754;28;20097;-89
2023/01/14 14:53:26;;;;;;;5.60;5.30;;;;;;;;;;4975009;28;20055;-89
2023/01/14 14:55:54;;;;;;;7.65;7.15;;;;;;;;;;4973370;28;20459;-90
2023/01/14 14:58:22;;;;;;;3.88;3.63;;;;;;;;;;4974925;28;20062;-89
2023/01/14 15:00:52;;;;;;;4.80;4.38;;;;;;;;;;4974754;28;20467;-89
2023/01/14 15:03:20;;;;;;;6.53;5.78;;;;;;;;;;4974748;28;20105;-89
2023/01/14 15:05:46;;;;;;;4.40;4.10;;;;;;;;;;4987431;28;20042;-89
2023/01/14 15:08:15;;;;;;;3.05;2.85;;;;;;;;;;4994195;28;20046;-89
2023/01/14 15:10:43;;;;;;;3.35;3.10;;;;;;;;;;4993986;28;20054;-89
2023/01/14 15:13:15;;;;;;;7.22;3.25;;;;;;;;;;4993848;28;20058;-88
2023/01/14 15:15:43;;;;;;;4.57;3.30;;;;;;;;;;4981542;28;20058;-88
2023/01/14 15:18:18;;;;;;;3.53;2.83;;;;;;;;;;4976482;28;20451;-89
2023/01/14 15:20:46;;;;;;;4.25;3.47;;;;;;;;;;4973961;28;20047;-89
2023/01/14 15:23:14;;;;;;;3.63;3.42;;;;;;;;;;4973783;28;20097;-88
2023/01/14 15:25:41;;;;;;;4.65;4.25;;;;;;;;;;4985452;28;20058;-89
2023/01/14 15:28:13;;;;;;;4.47;4.07;;;;;;;;;;4993830;28;20476;-89
2023/01/14 15:30:39;;;;;;;2.85;2.65;;;;;;;;;;4992990;28;20470;-90
2023/01/14 15:33:25;;;;;;;3.97;3.70;;;;;;;;;;4974018;28;20077;-89
2023/01/14 15:35:56;;;;;;;3.00;2.80;;;;;;;;;;4967833;28;20050;-89
2023/01/14 15:38:23;;;;;;;8.35;4.20;;;;;;;;;;4990427;28;20057;-90